createdAt,value
2022-12-08T00:00:23.375Z,1010.19
2022-12-08T00:01:26.708Z,1010.18
2022-12-08T00:02:30.683Z,1010.17
2022-12-08T00:04:07.855Z,1010.14
2022-12-08T00:05:11.477Z,1010.12
2022-12-08T00:06:14.260Z,1010.18
2022-12-08T00:07:49.154Z,1010.10
2022-12-08T00:08:52.136Z,1010.10
2022-12-08T00:09:54.807Z,1010.11
2022-12-08T00:12:10.264Z,1010.07
2022-12-08T00:13:12.982Z,1010.06
2022-12-08T00:14:15.736Z,1010.07
2022-12-08T00:15:50.999Z,1010.03
2022-12-08T00:16:54.222Z,1010.01
2022-12-08T00:17:57.384Z,1009.98
2022-12-08T00:19:32.042Z,1009.97
2022-12-08T00:20:34.963Z,1009.94
2022-12-08T00:21:37.753Z,1009.95
2022-12-08T00:23:12.403Z,1009.91
2022-12-08T00:24:15.230Z,1009.89
2022-12-08T00:25:17.994Z,1009.85
2022-12-08T00:26:52.514Z,1009.79
2022-12-08T00:27:55.208Z,1009.80
2022-12-08T00:28:57.888Z,1009.80
2022-12-08T00:30:40.475Z,1009.77
2022-12-08T00:31:43.557Z,1009.73
2022-12-08T00:32:46.713Z,1009.73
2022-12-08T00:34:21.223Z,1009.67
2022-12-08T00:35:24.028Z,1009.73
2022-12-08T00:36:34.439Z,1009.67
2022-12-08T00:38:12.387Z,1009.66
2022-12-08T00:39:15.131Z,1009.67
2022-12-08T00:40:18.347Z,1009.65
2022-12-08T00:41:52.922Z,1009.55
2022-12-08T00:42:55.616Z,1009.58
2022-12-08T00:43:58.389Z,1009.59
2022-12-08T00:45:32.987Z,1009.54
2022-12-08T00:46:36.283Z,1009.55
2022-12-08T00:47:38.990Z,1009.56
2022-12-08T00:49:13.551Z,1009.46
2022-12-08T00:50:16.991Z,1009.49
2022-12-08T00:51:19.791Z,1009.43
2022-12-08T00:52:54.503Z,1009.41
2022-12-08T00:53:57.273Z,1009.37
2022-12-08T00:55:00.100Z,1009.36
2022-12-08T00:56:34.920Z,1009.39
2022-12-08T00:57:37.683Z,1009.36
2022-12-08T00:58:40.751Z,1009.35
2022-12-08T01:00:22.864Z,1009.32
2022-12-08T01:01:26.081Z,1009.31
2022-12-08T01:02:29.167Z,1009.27
2022-12-08T01:04:03.950Z,1009.27
2022-12-08T01:05:06.700Z,1009.26
2022-12-08T01:06:09.708Z,1009.26
2022-12-08T01:07:44.442Z,1009.26
2022-12-08T01:08:47.441Z,1009.27
2022-12-08T01:09:50.366Z,1009.28
2022-12-08T01:11:25.753Z,1009.28
2022-12-08T01:12:28.552Z,1009.23
2022-12-08T01:13:31.506Z,1009.23
2022-12-08T01:15:11.891Z,1009.26
2022-12-08T01:16:14.913Z,1009.26
2022-12-08T01:17:18.095Z,1009.23
2022-12-08T01:18:52.626Z,1009.24
2022-12-08T01:19:56.044Z,1009.24
2022-12-08T01:20:59.585Z,1009.28
2022-12-08T01:22:34.192Z,1009.27
2022-12-08T01:23:36.832Z,1009.24
2022-12-08T01:24:39.595Z,1009.26
2022-12-08T01:26:14.494Z,1009.24
2022-12-08T01:27:17.407Z,1009.23
2022-12-08T01:28:20.174Z,1009.26
2022-12-08T01:29:54.894Z,1009.25
2022-12-08T01:30:59.032Z,1009.21
2022-12-08T01:32:02.326Z,1009.17
2022-12-08T01:33:36.764Z,1009.17
2022-12-08T01:34:39.603Z,1009.20
2022-12-08T01:35:42.422Z,1009.12
2022-12-08T01:37:17.021Z,1009.16
2022-12-08T01:38:19.754Z,1009.14
2022-12-08T01:39:22.422Z,1009.12
2022-12-08T01:40:57.872Z,1009.14
2022-12-08T01:42:00.748Z,1009.08
2022-12-08T01:43:03.725Z,1009.13
2022-12-08T01:44:38.437Z,1009.08
2022-12-08T01:45:43.079Z,1009.07
2022-12-08T01:46:46.601Z,1009.06
2022-12-08T01:48:21.702Z,1009.14
2022-12-08T01:49:24.661Z,1009.07
2022-12-08T01:50:27.582Z,1009.12
2022-12-08T01:52:02.411Z,1009.08
2022-12-08T01:53:05.208Z,1009.09
2022-12-08T01:54:07.972Z,1009.06
2022-12-08T01:55:42.463Z,1009.03
2022-12-08T01:56:45.085Z,1009.06
2022-12-08T01:57:47.885Z,1009.06
2022-12-08T01:59:22.642Z,1009.04
2022-12-08T02:00:23.548Z,1009.00
2022-12-08T02:01:26.750Z,1008.98
2022-12-08T02:02:30.218Z,1009.03
2022-12-08T02:04:05.285Z,1008.97
2022-12-08T02:05:08.105Z,1008.99
2022-12-08T02:06:11.104Z,1008.96
2022-12-08T02:07:51.350Z,1008.98
2022-12-08T02:08:54.431Z,1009.00
2022-12-08T02:09:57.322Z,1008.95
2022-12-08T02:11:32.626Z,1008.89
2022-12-08T02:12:35.349Z,1008.87
2022-12-08T02:13:38.056Z,1008.85
2022-12-08T02:15:16.827Z,1008.86
2022-12-08T02:16:20.022Z,1008.83
2022-12-08T02:17:23.048Z,1008.82
2022-12-08T02:19:37.143Z,1008.86
2022-12-08T02:20:40.045Z,1008.85
2022-12-08T02:21:42.955Z,1008.84
2022-12-08T02:23:17.863Z,1008.81
2022-12-08T02:24:20.598Z,1008.80
2022-12-08T02:25:23.356Z,1008.83
2022-12-08T02:26:57.925Z,1008.79
2022-12-08T02:28:00.640Z,1008.78
2022-12-08T02:29:03.385Z,1008.76
2022-12-08T02:30:38.208Z,1008.77
2022-12-08T02:31:41.709Z,1008.80
2022-12-08T02:32:44.617Z,1008.74
2022-12-08T02:34:19.418Z,1008.79
2022-12-08T02:35:22.237Z,1008.72
2022-12-08T02:36:25.381Z,1008.71
2022-12-08T02:37:59.985Z,1008.72
2022-12-08T02:39:02.788Z,1008.67
2022-12-08T02:40:05.889Z,1008.69
2022-12-08T02:41:40.935Z,1008.64
2022-12-08T02:42:43.668Z,1008.65
2022-12-08T02:43:46.634Z,1008.67
2022-12-08T02:45:21.327Z,1008.64
2022-12-08T02:46:24.392Z,1008.62
2022-12-08T02:47:27.489Z,1008.56
2022-12-08T02:49:01.935Z,1008.55
2022-12-08T02:50:05.094Z,1008.49
2022-12-08T02:51:08.251Z,1008.48
2022-12-08T02:52:42.886Z,1008.51
2022-12-08T02:53:45.753Z,1008.45
2022-12-08T02:54:48.515Z,1008.47
2022-12-08T02:56:23.441Z,1008.45
2022-12-08T02:57:26.270Z,1008.46
2022-12-08T02:58:29.232Z,1008.46
2022-12-08T03:00:23.012Z,1008.41
2022-12-08T03:01:25.887Z,1008.41
2022-12-08T03:02:29.162Z,1008.37
2022-12-08T03:04:04.223Z,1008.34
2022-12-08T03:05:06.945Z,1008.34
2022-12-08T03:06:09.795Z,1008.31
2022-12-08T03:07:44.771Z,1008.28
2022-12-08T03:08:47.946Z,1008.28
2022-12-08T03:09:50.943Z,1008.28
2022-12-08T03:11:26.567Z,1008.25
2022-12-08T03:12:29.490Z,1008.29
2022-12-08T03:13:32.555Z,1008.21
2022-12-08T03:15:07.018Z,1008.22
2022-12-08T03:16:10.022Z,1008.23
2022-12-08T03:17:13.424Z,1008.23
2022-12-08T03:18:49.991Z,1008.28
2022-12-08T03:19:52.625Z,1008.21
2022-12-08T03:20:55.953Z,1008.15
2022-12-08T03:22:30.499Z,1008.12
2022-12-08T03:23:33.341Z,1008.13
2022-12-08T03:24:36.181Z,1008.09
2022-12-08T03:26:10.886Z,1008.08
2022-12-08T03:27:13.883Z,1008.09
2022-12-08T03:28:16.739Z,1008.10
2022-12-08T03:29:51.436Z,1008.05
2022-12-08T03:30:55.136Z,1008.06
2022-12-08T03:31:58.087Z,1007.98
2022-12-08T03:33:32.661Z,1007.99
2022-12-08T03:34:35.518Z,1007.98
2022-12-08T03:35:38.325Z,1007.94
2022-12-08T03:37:12.918Z,1007.91
2022-12-08T03:38:15.702Z,1007.93
2022-12-08T03:39:18.768Z,1007.82
2022-12-08T03:40:54.110Z,1007.91
2022-12-08T03:41:56.899Z,1007.88
2022-12-08T03:42:59.734Z,1007.94
2022-12-08T03:44:34.687Z,1007.93
2022-12-08T03:45:37.660Z,1007.97
2022-12-08T03:46:40.178Z,1007.92
2022-12-08T03:48:14.929Z,1007.94
2022-12-08T03:49:17.804Z,1007.88
2022-12-08T03:50:20.536Z,1007.95
2022-12-08T03:51:55.102Z,1007.88
2022-12-08T03:52:57.891Z,1007.85
2022-12-08T03:54:00.657Z,1007.83
2022-12-08T03:55:35.058Z,1007.89
2022-12-08T03:56:38.100Z,1007.88
2022-12-08T03:57:41.212Z,1007.88
2022-12-08T03:59:23.137Z,1007.89
2022-12-08T04:00:23.831Z,1007.82
2022-12-08T04:01:26.957Z,1007.84
2022-12-08T04:02:30.574Z,1007.84
2022-12-08T04:04:05.690Z,1007.83
2022-12-08T04:05:08.486Z,1007.86
2022-12-08T04:06:11.488Z,1007.79
2022-12-08T04:07:46.382Z,1007.81
2022-12-08T04:08:49.604Z,1007.79
2022-12-08T04:09:52.449Z,1007.75
2022-12-08T04:11:27.537Z,1007.73
2022-12-08T04:12:30.370Z,1007.72
2022-12-08T04:13:33.205Z,1007.71
2022-12-08T04:15:07.988Z,1007.66
2022-12-08T04:16:11.253Z,1007.69
2022-12-08T04:17:15.006Z,1007.66
2022-12-08T04:18:49.770Z,1007.68
2022-12-08T04:19:53.119Z,1007.64
2022-12-08T04:20:56.494Z,1007.68
2022-12-08T04:22:31.092Z,1007.69
2022-12-08T04:23:34.599Z,1007.67
2022-12-08T04:24:45.227Z,1007.66
2022-12-08T04:26:19.946Z,1007.67
2022-12-08T04:27:22.785Z,1007.65
2022-12-08T04:28:25.459Z,1007.67
2022-12-08T04:30:00.129Z,1007.72
2022-12-08T04:31:03.793Z,1007.70
2022-12-08T04:32:07.200Z,1007.72
2022-12-08T04:33:45.040Z,1007.68
2022-12-08T04:34:47.826Z,1007.65
2022-12-08T04:35:50.785Z,1007.68
2022-12-08T04:37:25.560Z,1007.69
2022-12-08T04:38:28.491Z,1007.66
2022-12-08T04:39:31.191Z,1007.63
2022-12-08T04:41:05.748Z,1007.68
2022-12-08T04:42:08.434Z,1007.67
2022-12-08T04:43:11.118Z,1007.67
2022-12-08T04:44:45.897Z,1007.67
2022-12-08T04:45:48.576Z,1007.66
2022-12-08T04:46:55.137Z,1007.64
2022-12-08T04:48:30.291Z,1007.60
2022-12-08T04:49:33.083Z,1007.63
2022-12-08T04:50:35.926Z,1007.61
2022-12-08T04:52:10.652Z,1007.63
2022-12-08T04:53:13.616Z,1007.60
2022-12-08T04:54:16.601Z,1007.60
2022-12-08T04:55:51.307Z,1007.63
2022-12-08T04:56:54.040Z,1007.61
2022-12-08T04:57:56.792Z,1007.71
2022-12-08T04:59:31.273Z,1007.67
2022-12-08T05:00:23.162Z,1007.64
2022-12-08T05:01:26.123Z,1007.66
2022-12-08T05:02:30.001Z,1007.63
2022-12-08T05:04:14.145Z,1007.62
2022-12-08T05:05:58.665Z,1007.62
2022-12-08T05:07:01.565Z,1007.62
2022-12-08T05:08:04.718Z,1007.59
2022-12-08T05:09:39.665Z,1007.60
2022-12-08T05:10:42.460Z,1007.56
2022-12-08T05:11:52.496Z,1007.57
2022-12-08T05:13:27.164Z,1007.58
2022-12-08T05:14:29.960Z,1007.56
2022-12-08T05:15:32.671Z,1007.60
2022-12-08T05:17:15.109Z,1007.59
2022-12-08T05:18:17.901Z,1007.56
2022-12-08T05:19:20.782Z,1007.53
2022-12-08T05:20:56.227Z,1007.50
2022-12-08T05:21:58.985Z,1007.60
2022-12-08T05:23:01.856Z,1007.55
2022-12-08T05:24:36.489Z,1007.61
2022-12-08T05:25:45.062Z,1007.61
2022-12-08T05:26:48.043Z,1007.63
2022-12-08T05:28:51.932Z,1007.64
2022-12-08T05:29:54.741Z,1007.62
2022-12-08T05:30:58.026Z,1007.61
2022-12-08T05:32:33.476Z,1007.55
2022-12-08T05:33:36.081Z,1007.54
2022-12-08T05:34:39.034Z,1007.52
2022-12-08T05:36:13.593Z,1007.55
2022-12-08T05:37:16.423Z,1007.53
2022-12-08T05:38:19.219Z,1007.53
2022-12-08T05:39:53.745Z,1007.49
2022-12-08T05:40:57.230Z,1007.53
2022-12-08T05:42:00.044Z,1007.51
2022-12-08T05:43:42.305Z,1007.50
2022-12-08T05:44:44.950Z,1007.46
2022-12-08T05:45:47.956Z,1007.48
2022-12-08T05:47:23.053Z,1007.50
2022-12-08T05:48:33.278Z,1007.49
2022-12-08T05:49:36.105Z,1007.48
2022-12-08T05:51:10.690Z,1007.45
2022-12-08T05:52:13.492Z,1007.44
2022-12-08T05:53:16.167Z,1007.44
2022-12-08T05:54:50.871Z,1007.47
2022-12-08T05:55:53.658Z,1007.47
2022-12-08T05:56:58.370Z,1007.46
2022-12-08T05:58:32.992Z,1007.47
2022-12-08T05:59:35.799Z,1007.48
2022-12-08T06:00:23.693Z,1007.45
2022-12-08T06:01:26.399Z,1007.50
2022-12-08T06:02:30.278Z,1007.43
2022-12-08T06:04:06.246Z,1007.47
2022-12-08T06:05:09.013Z,1007.45
2022-12-08T06:06:12.032Z,1007.47
2022-12-08T06:07:46.755Z,1007.44
2022-12-08T06:08:49.784Z,1007.48
2022-12-08T06:09:52.704Z,1007.41
2022-12-08T06:11:27.856Z,1007.44
2022-12-08T06:12:30.457Z,1007.35
2022-12-08T06:13:33.112Z,1007.39
2022-12-08T06:15:07.823Z,1007.35
2022-12-08T06:16:10.718Z,1007.34
2022-12-08T06:17:14.077Z,1007.33
2022-12-08T06:18:48.689Z,1007.32
2022-12-08T06:19:51.496Z,1007.32
2022-12-08T06:20:55.344Z,1007.29
2022-12-08T06:22:29.879Z,1007.24
2022-12-08T06:23:32.880Z,1007.23
2022-12-08T06:24:35.739Z,1007.26
2022-12-08T06:26:10.371Z,1007.22
2022-12-08T06:27:13.049Z,1007.24
2022-12-08T06:28:15.831Z,1007.24
2022-12-08T06:29:50.324Z,1007.24
2022-12-08T06:30:53.645Z,1007.24
2022-12-08T06:31:57.014Z,1007.27
2022-12-08T06:33:32.350Z,1007.26
2022-12-08T06:34:35.158Z,1007.28
2022-12-08T06:35:37.902Z,1007.20
2022-12-08T06:37:12.464Z,1007.20
2022-12-08T06:38:15.346Z,1007.22
2022-12-08T06:39:18.025Z,1007.17
2022-12-08T06:40:53.606Z,1007.22
2022-12-08T06:41:56.393Z,1007.21
2022-12-08T06:42:59.166Z,1007.24
2022-12-08T06:44:33.723Z,1007.23
2022-12-08T06:45:36.840Z,1007.22
2022-12-08T06:46:40.302Z,1007.22
2022-12-08T06:48:22.143Z,1007.21
2022-12-08T06:49:25.087Z,1007.17
2022-12-08T06:50:27.810Z,1007.17
2022-12-08T06:52:02.635Z,1007.21
2022-12-08T06:53:16.210Z,1007.21
2022-12-08T06:54:18.984Z,1007.24
2022-12-08T06:56:10.965Z,1007.25
2022-12-08T06:57:13.792Z,1007.28
2022-12-08T06:58:16.619Z,1007.26
2022-12-08T06:59:51.205Z,1007.33
2022-12-08T07:00:23.427Z,1007.32
2022-12-08T07:01:26.910Z,1007.32
2022-12-08T07:02:30.402Z,1007.33
2022-12-08T07:04:05.395Z,1007.36
2022-12-08T07:05:08.274Z,1007.33
2022-12-08T07:06:15.493Z,1007.32
2022-12-08T07:07:50.259Z,1007.33
2022-12-08T07:08:53.510Z,1007.37
2022-12-08T07:09:56.417Z,1007.38
2022-12-08T07:11:33.877Z,1007.41
2022-12-08T07:12:36.694Z,1007.47
2022-12-08T07:13:39.435Z,1007.44
2022-12-08T07:15:14.071Z,1007.45
2022-12-08T07:16:16.956Z,1007.48
2022-12-08T07:17:20.307Z,1007.49
2022-12-08T07:18:57.718Z,1007.47
2022-12-08T07:20:00.378Z,1007.49
2022-12-08T07:21:04.085Z,1007.45
2022-12-08T07:22:38.553Z,1007.46
2022-12-08T07:23:41.356Z,1007.43
2022-12-08T07:24:49.796Z,1007.40
2022-12-08T07:26:24.417Z,1007.42
2022-12-08T07:27:27.141Z,1007.41
2022-12-08T07:28:30.049Z,1007.42
2022-12-08T07:30:12.650Z,1007.47
2022-12-08T07:31:15.981Z,1007.50
2022-12-08T07:32:19.081Z,1007.45
2022-12-08T07:33:53.729Z,1007.47
2022-12-08T07:34:58.653Z,1007.48
2022-12-08T07:36:01.435Z,1007.51
2022-12-08T07:37:35.975Z,1007.47
2022-12-08T07:38:38.963Z,1007.46
2022-12-08T07:39:41.863Z,1007.50
2022-12-08T07:41:16.743Z,1007.48
2022-12-08T07:42:20.950Z,1007.48
2022-12-08T07:43:23.824Z,1007.51
2022-12-08T07:44:58.702Z,1007.49
2022-12-08T07:46:01.815Z,1007.48
2022-12-08T07:47:04.755Z,1007.54
2022-12-08T07:48:39.393Z,1007.55
2022-12-08T07:49:42.230Z,1007.52
2022-12-08T07:50:44.998Z,1007.56
2022-12-08T07:52:19.525Z,1007.53
2022-12-08T07:53:22.480Z,1007.57
2022-12-08T07:54:28.816Z,1007.53
2022-12-08T07:56:03.495Z,1007.53
2022-12-08T07:57:06.481Z,1007.58
2022-12-08T07:58:09.303Z,1007.60
2022-12-08T07:59:43.949Z,1007.62
2022-12-08T08:00:23.432Z,1007.62
2022-12-08T08:01:27.857Z,1007.61
2022-12-08T08:02:37.113Z,1007.63
2022-12-08T08:04:12.516Z,1007.71
2022-12-08T08:05:16.082Z,1007.67
2022-12-08T08:06:19.141Z,1007.67
2022-12-08T08:07:53.953Z,1007.67
2022-12-08T08:08:57.364Z,1007.66
2022-12-08T08:10:00.063Z,1007.72
2022-12-08T08:11:35.334Z,1007.74
2022-12-08T08:13:18.230Z,1007.70
2022-12-08T08:14:21.095Z,1007.74
2022-12-08T08:15:56.258Z,1007.80
2022-12-08T08:17:00.541Z,1007.78
2022-12-08T08:18:04.480Z,1007.75
2022-12-08T08:19:39.016Z,1007.78
2022-12-08T08:20:41.917Z,1007.74
2022-12-08T08:22:08.303Z,1007.78
2022-12-08T08:23:43.113Z,1007.76
2022-12-08T08:24:50.581Z,1007.73
2022-12-08T08:25:53.552Z,1007.75
2022-12-08T08:27:28.173Z,1007.75
2022-12-08T08:28:31.044Z,1007.74
2022-12-08T08:29:33.877Z,1007.74
2022-12-08T08:31:15.857Z,1007.75
2022-12-08T08:32:19.173Z,1007.74
2022-12-08T08:33:21.915Z,1007.76
2022-12-08T08:34:56.544Z,1007.76
2022-12-08T08:35:59.219Z,1007.77
2022-12-08T08:37:02.387Z,1007.77
2022-12-08T08:38:44.499Z,1007.79
2022-12-08T08:39:47.550Z,1007.79
2022-12-08T08:40:51.049Z,1007.82
2022-12-08T08:42:25.527Z,1007.78
2022-12-08T08:43:32.792Z,1007.77
2022-12-08T08:44:39.114Z,1007.82
2022-12-08T08:46:14.247Z,1007.82
2022-12-08T08:47:17.426Z,1007.84
2022-12-08T08:48:20.352Z,1007.84
2022-12-08T08:49:55.057Z,1007.84
2022-12-08T08:50:58.616Z,1007.81
2022-12-08T08:52:01.547Z,1007.76
2022-12-08T08:53:36.210Z,1007.78
2022-12-08T08:54:38.933Z,1007.79
2022-12-08T08:55:41.999Z,1007.77
2022-12-08T08:57:20.640Z,1007.75
2022-12-08T08:58:26.579Z,1007.73
2022-12-08T08:59:29.316Z,1007.73
2022-12-08T09:00:23.744Z,1007.73
2022-12-08T09:01:27.077Z,1007.72
2022-12-08T09:02:30.534Z,1007.69
2022-12-08T09:04:05.880Z,1007.71
2022-12-08T09:05:09.470Z,1007.70
2022-12-08T09:06:12.730Z,1007.71
2022-12-08T09:07:48.165Z,1007.73
2022-12-08T09:08:51.406Z,1007.77
2022-12-08T09:09:59.940Z,1007.80
2022-12-08T09:11:36.278Z,1007.78
2022-12-08T09:12:39.125Z,1007.75
2022-12-08T09:13:42.072Z,1007.76
2022-12-08T09:15:16.622Z,1007.70
2022-12-08T09:16:20.044Z,1007.71
2022-12-08T09:17:28.435Z,1007.73
2022-12-08T09:19:03.368Z,1007.72
2022-12-08T09:20:06.330Z,1007.70
2022-12-08T09:21:09.302Z,1007.76
2022-12-08T09:22:44.058Z,1007.77
2022-12-08T09:23:47.274Z,1007.79
2022-12-08T09:24:50.167Z,1007.77
2022-12-08T09:26:24.933Z,1007.76
2022-12-08T09:27:27.842Z,1007.71
2022-12-08T09:28:30.611Z,1007.73
2022-12-08T09:30:05.433Z,1007.73
2022-12-08T09:31:08.889Z,1007.71
2022-12-08T09:32:12.162Z,1007.73
2022-12-08T09:33:46.901Z,1007.79
2022-12-08T09:34:57.453Z,1007.76
2022-12-08T09:36:00.487Z,1007.80
2022-12-08T09:37:35.060Z,1007.78
2022-12-08T09:38:37.852Z,1007.84
2022-12-08T09:39:40.736Z,1007.78
2022-12-08T09:41:15.366Z,1007.75
2022-12-08T09:42:32.480Z,1007.71
2022-12-08T09:43:35.296Z,1007.73
2022-12-08T09:45:09.953Z,1007.73
2022-12-08T09:46:12.742Z,1007.75
2022-12-08T09:47:16.072Z,1007.75
2022-12-08T09:48:58.901Z,1007.80
2022-12-08T09:50:02.269Z,1007.77
2022-12-08T09:51:06.160Z,1007.71
2022-12-08T09:52:40.858Z,1007.74
2022-12-08T09:53:47.882Z,1007.76
2022-12-08T09:54:51.272Z,1007.77
2022-12-08T09:56:26.084Z,1007.76
2022-12-08T09:57:28.930Z,1007.76
2022-12-08T09:58:31.696Z,1007.76
2022-12-08T10:00:23.191Z,1007.74
2022-12-08T10:01:26.158Z,1007.76
2022-12-08T10:02:29.610Z,1007.74
2022-12-08T10:04:08.456Z,1007.76
2022-12-08T10:05:11.559Z,1007.73
2022-12-08T10:06:14.808Z,1007.70
2022-12-08T10:07:49.573Z,1007.67
2022-12-08T10:08:52.920Z,1007.64
2022-12-08T10:09:58.711Z,1007.60
2022-12-08T10:11:34.046Z,1007.61
2022-12-08T10:12:37.017Z,1007.59
2022-12-08T10:13:39.711Z,1007.58
2022-12-08T10:15:14.480Z,1007.61
2022-12-08T10:16:29.798Z,1007.62
2022-12-08T10:17:33.373Z,1007.63
2022-12-08T10:19:07.997Z,1007.59
2022-12-08T10:20:11.463Z,1007.60
2022-12-08T10:21:14.296Z,1007.63
2022-12-08T10:22:55.622Z,1007.59
2022-12-08T10:23:58.371Z,1007.63
2022-12-08T10:25:01.097Z,1007.59
2022-12-08T10:26:35.732Z,1007.60
2022-12-08T10:27:38.506Z,1007.58
2022-12-08T10:28:49.980Z,1007.56
2022-12-08T10:30:24.628Z,1007.51
2022-12-08T10:31:27.855Z,1007.51
2022-12-08T10:32:31.336Z,1007.57
2022-12-08T10:34:06.049Z,1007.47
2022-12-08T10:35:08.818Z,1007.46
2022-12-08T10:36:11.463Z,1007.47
2022-12-08T10:37:46.311Z,1007.45
2022-12-08T10:38:49.135Z,1007.48
2022-12-08T10:39:52.101Z,1007.45
2022-12-08T10:41:35.539Z,1007.42
2022-12-08T10:42:38.547Z,1007.41
2022-12-08T10:43:41.300Z,1007.41
2022-12-08T10:45:16.198Z,1007.39
2022-12-08T10:46:19.130Z,1007.37
2022-12-08T10:47:22.528Z,1007.35
2022-12-08T10:49:02.506Z,1007.36
2022-12-08T10:50:05.482Z,1007.35
2022-12-08T10:51:08.515Z,1007.35
2022-12-08T10:52:43.255Z,1007.39
2022-12-08T10:53:46.021Z,1007.35
2022-12-08T10:54:48.822Z,1007.33
2022-12-08T10:56:23.643Z,1007.32
2022-12-08T10:57:26.562Z,1007.33
2022-12-08T10:58:29.394Z,1007.33
2022-12-08T11:00:26.368Z,1007.29
2022-12-08T11:01:30.530Z,1007.26
2022-12-08T11:02:35.086Z,1007.29
2022-12-08T11:04:09.969Z,1007.27
2022-12-08T11:05:12.796Z,1007.27
2022-12-08T11:06:22.149Z,1007.25
2022-12-08T11:07:57.031Z,1007.22
2022-12-08T11:09:00.414Z,1007.24
2022-12-08T11:10:03.747Z,1007.23
2022-12-08T11:11:40.795Z,1007.23
2022-12-08T11:12:43.556Z,1007.25
2022-12-08T11:13:46.512Z,1007.24
2022-12-08T11:15:21.096Z,1007.28
2022-12-08T11:16:24.181Z,1007.29
2022-12-08T11:17:27.319Z,1007.30
2022-12-08T11:19:02.006Z,1007.26
2022-12-08T11:20:05.054Z,1007.24
2022-12-08T11:21:08.289Z,1007.24
2022-12-08T11:22:42.791Z,1007.14
2022-12-08T11:23:45.563Z,1007.12
2022-12-08T11:24:49.168Z,1007.15
2022-12-08T11:26:23.925Z,1007.20
2022-12-08T11:27:26.713Z,1007.17
2022-12-08T11:28:29.751Z,1007.21
2022-12-08T11:30:08.448Z,1007.17
2022-12-08T11:31:14.710Z,1007.14
2022-12-08T11:32:18.149Z,1007.12
2022-12-08T11:33:53.089Z,1007.15
2022-12-08T11:34:55.812Z,1007.13
2022-12-08T11:35:58.589Z,1007.11
2022-12-08T11:37:40.494Z,1007.11
2022-12-08T11:39:06.702Z,1007.10
2022-12-08T11:40:10.236Z,1007.09
2022-12-08T11:41:44.656Z,1007.10
2022-12-08T11:42:47.536Z,1007.06
2022-12-08T11:43:50.411Z,1007.10
2022-12-08T11:45:25.185Z,1007.09
2022-12-08T11:46:28.797Z,1007.10
2022-12-08T11:47:31.788Z,1007.06
2022-12-08T11:49:18.121Z,1007.06
2022-12-08T11:50:25.416Z,1007.07
2022-12-08T11:51:28.151Z,1007.04
2022-12-08T11:53:02.807Z,1007.04
2022-12-08T11:54:05.695Z,1007.02
2022-12-08T11:55:08.524Z,1007.01
2022-12-08T11:56:47.418Z,1007.02
2022-12-08T11:57:50.533Z,1006.99
2022-12-08T11:58:53.657Z,1007.00
2022-12-08T12:00:23.406Z,1007.06
2022-12-08T12:01:26.377Z,1007.09
2022-12-08T12:02:34.990Z,1007.05
2022-12-08T12:04:10.293Z,1007.04
2022-12-08T12:05:13.237Z,1007.05
2022-12-08T12:07:39.562Z,1007.07
2022-12-08T12:09:15.041Z,1007.06
2022-12-08T12:10:18.490Z,1007.05
2022-12-08T12:11:21.320Z,1007.03
2022-12-08T12:12:56.018Z,1007.04
2022-12-08T12:13:58.780Z,1007.07
2022-12-08T12:15:01.580Z,1007.02
2022-12-08T12:16:36.679Z,1007.04
2022-12-08T12:17:40.139Z,1007.02
2022-12-08T12:18:42.883Z,1007.03
2022-12-08T12:20:17.794Z,1007.04
2022-12-08T12:21:20.543Z,1007.04
2022-12-08T12:22:23.520Z,1007.06
2022-12-08T12:23:58.039Z,1007.04
2022-12-08T12:25:00.793Z,1007.01
2022-12-08T12:26:03.629Z,1006.99
2022-12-08T12:27:38.332Z,1006.99
2022-12-08T12:28:43.720Z,1007.00
2022-12-08T12:29:50.895Z,1006.98
2022-12-08T12:31:29.351Z,1006.95
2022-12-08T12:32:32.336Z,1006.92
2022-12-08T12:33:35.042Z,1006.89
2022-12-08T12:35:09.508Z,1006.88
2022-12-08T12:36:18.863Z,1006.86
2022-12-08T12:37:21.724Z,1006.86
2022-12-08T12:38:56.397Z,1006.87
2022-12-08T12:39:59.271Z,1006.85
2022-12-08T12:41:02.833Z,1006.87
2022-12-08T12:42:43.286Z,1006.82
2022-12-08T12:43:46.098Z,1006.84
2022-12-08T12:44:48.833Z,1006.81
2022-12-08T12:46:24.045Z,1006.78
2022-12-08T12:47:27.217Z,1006.79
2022-12-08T12:48:29.946Z,1006.79
2022-12-08T12:50:05.208Z,1006.78
2022-12-08T12:51:08.171Z,1006.74
2022-12-08T12:52:11.028Z,1006.74
2022-12-08T12:53:45.834Z,1006.77
2022-12-08T12:54:48.688Z,1006.76
2022-12-08T12:55:51.621Z,1006.77
2022-12-08T12:57:26.313Z,1006.79
2022-12-08T12:58:29.275Z,1006.76
2022-12-08T12:59:32.029Z,1006.75
2022-12-08T13:00:23.641Z,1006.68
2022-12-08T13:01:26.775Z,1006.75
2022-12-08T13:02:30.494Z,1006.75
2022-12-08T13:04:06.110Z,1006.73
2022-12-08T13:05:08.989Z,1006.76
2022-12-08T13:06:18.467Z,1006.74
2022-12-08T13:07:53.508Z,1006.69
2022-12-08T13:08:56.891Z,1006.71
2022-12-08T13:09:59.905Z,1006.70
2022-12-08T13:11:35.321Z,1006.69
2022-12-08T13:12:45.099Z,1006.65
2022-12-08T13:13:48.026Z,1006.66
2022-12-08T13:15:22.988Z,1006.63
2022-12-08T13:16:30.958Z,1006.63
2022-12-08T13:17:34.323Z,1006.63
2022-12-08T13:19:09.320Z,1006.64
2022-12-08T13:20:13.022Z,1006.65
2022-12-08T13:21:15.856Z,1006.64
2022-12-08T13:22:50.591Z,1006.68
2022-12-08T13:23:53.576Z,1006.67
2022-12-08T13:24:56.418Z,1006.67
2022-12-08T13:26:34.263Z,1006.69
2022-12-08T13:27:37.114Z,1006.66
2022-12-08T13:28:39.964Z,1006.62
2022-12-08T13:30:15.266Z,1006.66
2022-12-08T13:31:18.667Z,1006.63
2022-12-08T13:32:21.678Z,1006.60
2022-12-08T13:34:36.711Z,1006.59
2022-12-08T13:35:39.635Z,1006.55
2022-12-08T13:36:42.965Z,1006.59
2022-12-08T13:38:17.743Z,1006.56
2022-12-08T13:39:20.561Z,1006.55
2022-12-08T13:40:23.460Z,1006.59
2022-12-08T13:41:58.074Z,1006.60
2022-12-08T13:43:00.847Z,1006.57
2022-12-08T13:46:26.539Z,1006.58
2022-12-08T13:57:58.912Z,1006.55
2022-12-08T13:59:02.055Z,1006.50
2022-12-08T14:00:23.713Z,1006.49
2022-12-08T14:01:26.671Z,1006.50
2022-12-08T14:02:30.254Z,1006.48
2022-12-08T14:05:26.624Z,1006.48
2022-12-08T14:07:10.204Z,1006.56
2022-12-08T14:08:18.157Z,1006.57
2022-12-08T14:10:34.998Z,1006.59
2022-12-08T14:11:37.921Z,1006.57
2022-12-08T14:12:40.919Z,1006.58
2022-12-08T14:14:27.236Z,1006.59
2022-12-08T14:16:00.410Z,1006.60
2022-12-08T14:17:03.411Z,1006.58
2022-12-08T14:18:38.087Z,1006.62
2022-12-08T14:19:41.063Z,1006.60
2022-12-08T14:21:28.933Z,1006.58
2022-12-08T14:23:05.906Z,1006.59
2022-12-08T14:24:08.752Z,1006.58
2022-12-08T14:25:12.081Z,1006.58
2022-12-08T14:26:46.952Z,1006.57
2022-12-08T14:27:49.899Z,1006.57
2022-12-08T14:28:56.448Z,1006.58
2022-12-08T14:30:32.426Z,1006.58
2022-12-08T14:31:36.115Z,1006.58
2022-12-08T14:32:39.240Z,1006.61
2022-12-08T14:34:14.348Z,1006.56
2022-12-08T14:35:17.621Z,1006.59
2022-12-08T14:36:20.518Z,1006.57
2022-12-08T14:37:55.665Z,1006.56
2022-12-08T14:38:58.786Z,1006.56
2022-12-08T14:40:02.399Z,1006.55
2022-12-08T14:41:43.330Z,1006.53
2022-12-08T14:42:46.115Z,1006.52
2022-12-08T14:43:49.009Z,1006.53
2022-12-08T14:45:23.632Z,1006.55
2022-12-08T14:46:27.231Z,1006.55
2022-12-08T14:47:30.383Z,1006.57
2022-12-08T14:49:05.067Z,1006.56
2022-12-08T14:50:08.870Z,1006.56
2022-12-08T14:51:11.942Z,1006.55
2022-12-08T14:52:46.612Z,1006.56
2022-12-08T14:53:50.200Z,1006.58
2022-12-08T14:54:53.592Z,1006.54
2022-12-08T14:56:28.300Z,1006.58
2022-12-08T14:57:31.489Z,1006.56
2022-12-08T14:58:34.292Z,1006.52
2022-12-08T15:00:23.387Z,1006.56
2022-12-08T15:01:26.679Z,1006.58
2022-12-08T15:02:29.711Z,1006.58
2022-12-08T15:04:04.456Z,1006.59
2022-12-08T15:05:07.488Z,1006.60
2022-12-08T15:06:10.693Z,1006.58
2022-12-08T15:07:45.727Z,1006.63
2022-12-08T15:08:48.994Z,1006.62
2022-12-08T15:09:51.956Z,1006.62
2022-12-08T15:11:27.336Z,1006.64
2022-12-08T15:12:37.918Z,1006.62
2022-12-08T15:13:40.920Z,1006.60
2022-12-08T15:15:15.534Z,1006.57
2022-12-08T15:16:18.830Z,1006.62